Represa, California
Current Conditions -  °F | °C
As of 2:45 AM on Saturday 20 Dec 2014 (Local Time) from KMHR Reporting Station
Overcast Overcast  
Wind Chill: 52°   Ceiling: 2600
Heat Index: 52°   Visibility: 4mi
Dew Point: 52°   Wind: 8mph
Humidity: 100%   Direction: 150°SSE
Pressure: 30.16"   Gusts: NA
Location:  38.67°N, 121.15°W
Report Text: KMHR 201045Z 15007KT 4SM BKN026 OVC039 11/11 A3016
Loading
Personal Weather Stations






























Interactive Weather Map New forecast layout! Learn more

10-Day Weather Forecast

Advertisements
Track Severe Weather on mobile